Time;durP1;ratioP1;P1;durP2;ratioP2;P2;SDS_P1;SDS_P2;PMS_P1;PMS_P2;Temp;Humidity;BMP_temperature;BMP_pressure;BME280_temperature;BME280_humidity;BME280_pressure;Samples;Min_cycle;Max_cycle;Signal;HPM_P1;HPM_P2
2022/01/11 00:00:59;;;;;;;42.50;16.90;;;3.80;94.70;;;;;;5091553;28;20218;-74
2022/01/11 00:03:25;;;;;;;37.43;18.00;;;3.80;94.80;;;;;;5092357;28;20414;-74
2022/01/11 00:06:01;;;;;;;33.60;17.40;;;3.90;94.70;;;;;;5092601;28;20433;-77
2022/01/11 00:08:31;;;;;;;36.20;17.43;;;3.90;94.60;;;;;;5090984;28;20220;-76
2022/01/11 00:11:05;;;;;;;45.70;18.07;;;3.80;94.50;;;;;;5090791;28;20409;-75
2022/01/11 00:13:36;;;;;;;38.50;17.20;;;3.90;94.60;;;;;;5090620;28;20433;-74
2022/01/11 00:16:02;;;;;;;45.40;19.97;;;3.90;94.60;;;;;;5090650;28;20440;-74
2022/01/11 00:18:28;;;;;;;44.37;18.50;;;3.90;94.50;;;;;;5090704;28;20496;-73
2022/01/11 00:20:55;;;;;;;43.30;19.90;;;3.90;94.40;;;;;;5090950;28;20879;-74
2022/01/11 00:25:53;;;;;;;45.23;18.37;;;3.80;94.30;;;;;;5090256;28;20555;-75
2022/01/11 00:28:20;;;;;;;43.43;18.07;;;3.80;94.20;;;;;;5091435;28;20428;-74
2022/01/11 00:30:48;;;;;;;31.70;16.60;;;3.80;94.30;;;;;;5090429;28;20413;-73
2022/01/11 00:33:19;;;;;;;37.40;17.57;;;3.80;94.30;;;;;;5090947;28;20443;-74
2022/01/11 00:35:56;;;;;;;34.07;17.33;;;3.80;94.30;;;;;;5089696;28;20954;-74
2022/01/11 00:38:22;;;;;;;40.30;17.93;;;3.80;94.30;;;;;;5089119;28;20405;-74
2022/01/11 00:40:54;;;;;;;38.43;18.30;;;3.80;94.40;;;;;;5090495;28;20437;-75
2022/01/11 00:43:22;;;;;;;37.17;18.43;;;3.80;94.10;;;;;;5090304;28;20425;-74
2022/01/11 00:45:49;;;;;;;38.57;19.70;;;3.80;94.20;;;;;;5089245;28;20844;-74
2022/01/11 00:48:15;;;;;;;49.83;18.93;;;3.80;94.30;;;;;;5090214;28;20613;-74
2022/01/11 00:50:41;;;;;;;47.63;21.60;;;3.80;94.30;;;;;;5090481;28;20961;-73
2022/01/11 00:53:09;;;;;;;44.77;19.43;;;3.80;94.30;;;;;;5090136;28;20482;-74
2022/01/11 00:55:35;;;;;;;40.70;18.20;;;3.80;94.50;;;;;;5088360;28;20437;-73
2022/01/11 00:58:02;;;;;;;42.60;19.77;;;3.80;94.50;;;;;;5090624;28;20425;-72
2022/01/11 01:00:29;;;;;;;39.93;19.70;;;3.80;94.60;;;;;;5091000;28;20421;-73
2022/01/11 01:02:55;;;;;;;45.77;19.37;;;3.90;94.60;;;;;;5089743;28;20413;-74
2022/01/11 01:05:22;;;;;;;43.60;18.03;;;3.80;94.50;;;;;;5089320;28;20490;-73
2022/01/11 01:07:49;;;;;;;47.10;19.07;;;3.90;94.50;;;;;;5088448;28;20563;-73
2022/01/11 01:10:26;;;;;;;45.57;19.83;;;3.90;94.50;;;;;;5091744;28;20475;-74
2022/01/11 01:12:56;;;;;;;44.77;19.00;;;3.90;94.40;;;;;;5093115;28;20515;-73
2022/01/11 01:15:23;;;;;;;43.47;20.10;;;3.90;94.50;;;;;;5092810;28;20516;-74
2022/01/11 01:17:49;;;;;;;42.80;20.83;;;3.90;94.40;;;;;;5095518;28;20453;-74
2022/01/11 01:20:15;;;;;;;44.03;19.67;;;3.90;94.50;;;;;;5095405;28;20896;-75
2022/01/11 01:22:41;;;;;;;44.23;19.97;;;3.90;94.50;;;;;;5094406;28;20505;-73
2022/01/11 01:25:08;;;;;;;46.07;22.10;;;3.90;94.40;;;;;;5096520;28;20429;-73
2022/01/11 01:27:34;;;;;;;42.87;21.00;;;3.90;94.30;;;;;;5094686;28;20544;-75
2022/01/11 01:30:00;;;;;;;50.20;22.27;;;3.90;94.30;;;;;;5095362;28;20413;-73
2022/01/11 01:32:26;;;;;;;48.60;21.10;;;3.90;94.20;;;;;;5096572;28;20517;-74
2022/01/11 01:34:52;;;;;;;48.00;21.67;;;3.90;94.10;;;;;;5094267;28;20224;-73
2022/01/11 01:37:18;;;;;;;42.30;20.23;;;3.80;94.10;;;;;;5092197;28;20820;-74
2022/01/11 01:39:44;;;;;;;47.03;21.57;;;3.80;94.30;;;;;;5092456;28;20417;-74
2022/01/11 01:42:13;;;;;;;50.30;22.90;;;3.80;94.40;;;;;;5093019;28;20204;-75
2022/01/11 01:44:42;;;;;;;52.90;23.10;;;3.70;94.40;;;;;;5091885;28;20449;-73
2022/01/11 01:47:09;;;;;;;47.77;22.50;;;3.70;94.50;;;;;;5090861;28;20473;-74
2022/01/11 01:49:38;;;;;;;50.93;21.90;;;3.70;94.60;;;;;;5091825;28;20420;-73
2022/01/11 01:52:04;;;;;;;44.50;21.10;;;3.70;94.60;;;;;;5092255;28;20467;-74
2022/01/11 01:54:31;;;;;;;55.27;23.70;;;3.70;94.60;;;;;;5092066;28;20776;-75
2022/01/11 01:56:56;;;;;;;46.10;21.70;;;3.70;94.60;;;;;;5092018;28;20417;-74
2022/01/11 01:59:23;;;;;;;49.37;23.57;;;3.70;94.70;;;;;;5091784;28;20433;-74
2022/01/11 02:01:49;;;;;;;54.70;21.93;;;3.70;94.80;;;;;;5092034;28;20186;-72
2022/01/11 02:04:17;;;;;;;45.10;22.40;;;3.70;94.80;;;;;;5098282;28;20519;-74
2022/01/11 02:06:43;;;;;;;42.07;22.40;;;3.60;94.90;;;;;;5094557;28;20460;-73
2022/01/11 02:09:12;;;;;;;48.40;22.17;;;3.60;94.90;;;;;;5091932;28;20420;-74
2022/01/11 02:11:39;;;;;;;48.00;22.67;;;3.60;95.00;;;;;;5092300;28;20455;-74
2022/01/11 02:14:04;;;;;;;48.07;23.07;;;3.70;95.00;;;;;;5091866;28;20775;-73
2022/01/11 02:16:31;;;;;;;55.17;23.57;;;3.70;94.90;;;;;;5091670;28;20474;-73
2022/01/11 02:18:57;;;;;;;48.87;21.77;;;3.70;94.90;;;;;;5091964;28;20417;-74
2022/01/11 02:21:23;;;;;;;46.23;23.40;;;3.70;94.90;;;;;;5090866;28;20421;-73
2022/01/11 02:23:50;;;;;;;48.90;22.13;;;3.70;94.80;;;;;;5091959;28;20186;-73
2022/01/11 02:26:16;;;;;;;53.20;22.63;;;3.70;94.70;;;;;;5088039;28;20971;-73
2022/01/11 02:28:41;;;;;;;47.57;21.13;;;3.70;94.70;;;;;;5093180;28;20420;-74
2022/01/11 02:31:12;;;;;;;43.77;21.70;;;3.60;94.70;;;;;;5091906;28;20417;-72
2022/01/11 02:33:44;;;;;;;44.50;22.63;;;3.60;94.80;;;;;;5091635;28;20486;-73
2022/01/11 02:36:16;;;;;;;58.50;23.23;;;3.60;94.80;;;;;;5091242;28;20178;-73
2022/01/11 02:38:42;;;;;;;45.60;21.70;;;3.50;95.00;;;;;;5091274;28;20425;-73
2022/01/11 02:41:07;;;;;;;48.00;22.20;;;3.60;95.10;;;;;;5090024;28;20228;-74
2022/01/11 02:43:33;;;;;;;44.47;21.70;;;3.60;95.00;;;;;;5091052;28;20187;-74
2022/01/11 02:46:00;;;;;;;51.30;22.90;;;3.70;94.90;;;;;;5090837;28;20238;-74
2022/01/11 02:48:26;;;;;;;46.03;23.07;;;3.70;94.90;;;;;;5091033;28;20175;-74
2022/01/11 02:50:52;;;;;;;47.73;22.10;;;3.60;94.80;;;;;;5091177;28;20926;-74
2022/01/11 02:53:18;;;;;;;45.80;22.80;;;3.70;94.90;;;;;;5090783;28;20445;-74
2022/01/11 02:55:45;;;;;;;49.40;20.80;;;3.70;94.90;;;;;;5091062;28;20668;-73
2022/01/11 02:58:12;;;;;;;52.53;22.07;;;3.60;94.90;;;;;;5089612;28;20547;-72
2022/01/11 03:00:39;;;;;;;45.10;21.77;;;3.60;94.80;;;;;;5089431;28;20421;-73
2022/01/11 03:03:13;;;;;;;53.97;22.10;;;3.60;95.00;;;;;;5090342;28;20557;-73
2022/01/11 03:05:47;;;;;;;51.33;21.67;;;3.60;95.00;;;;;;5089204;28;20437;-73
2022/01/11 03:08:14;;;;;;;60.43;23.30;;;3.60;95.00;;;;;;5090711;28;20413;-74
2022/01/11 03:10:40;;;;;;;46.03;22.63;;;3.70;95.00;;;;;;5090682;28;20409;-74
2022/01/11 03:13:09;;;;;;;47.83;22.60;;;3.60;95.00;;;;;;5089960;28;20980;-73
2022/01/11 03:15:36;;;;;;;44.40;21.20;;;3.70;95.00;;;;;;5089997;28;20520;-73
2022/01/11 03:18:04;;;;;;;57.00;21.38;;;3.70;95.00;;;;;;5090088;28;20421;-73
2022/01/11 03:20:33;;;;;;;44.67;21.33;;;3.70;94.90;;;;;;5089370;28;20179;-73
2022/01/11 03:22:59;;;;;;;45.13;21.67;;;3.80;94.80;;;;;;5090076;28;20449;-75
2022/01/11 03:25:25;;;;;;;38.17;18.63;;;3.70;94.70;;;;;;5090227;28;20925;-73
2022/01/11 03:27:52;;;;;;;50.07;23.00;;;3.70;94.80;;;;;;5089635;28;20475;-73
2022/01/11 03:30:18;;;;;;;42.40;20.43;;;3.70;94.90;;;;;;5090732;28;20821;-73
2022/01/11 03:32:45;;;;;;;49.03;22.27;;;3.80;94.90;;;;;;5089752;28;20479;-73
2022/01/11 03:35:12;;;;;;;47.83;20.37;;;3.80;94.90;;;;;;5089755;28;20453;-73
2022/01/11 03:37:38;;;;;;;42.97;20.20;;;3.80;94.70;;;;;;5088088;28;20906;-73
2022/01/11 03:40:08;;;;;;;48.37;22.50;;;3.80;94.60;;;;;;5090159;28;20437;-73
2022/01/11 03:42:34;;;;;;;40.92;20.35;;;3.80;94.40;;;;;;5090015;28;20469;-73
2022/01/11 03:45:00;;;;;;;45.53;21.30;;;3.80;94.40;;;;;;5087921;28;20723;-73
2022/01/11 03:47:25;;;;;;;52.37;21.40;;;3.80;94.40;;;;;;5090888;28;20488;-75
2022/01/11 03:49:51;;;;;;;48.97;24.13;;;3.80;94.50;;;;;;5090498;28;20534;-74
2022/01/11 03:52:17;;;;;;;49.60;22.23;;;3.80;94.50;;;;;;5090767;28;20171;-74
2022/01/11 03:55:10;;;;;;;51.90;22.83;;;3.70;94.50;;;;;;5090380;28;20644;-74
2022/01/11 03:57:30;;;;;;;61.60;24.08;;;3.70;94.50;;;;;;5090642;28;20424;-74
2022/01/11 03:59:58;;;;;;;52.73;23.73;;;3.70;94.40;;;;;;5090777;28;20555;-74
2022/01/11 04:02:24;;;;;;;54.95;23.98;;;3.60;94.40;;;;;;5090418;28;21256;-74
2022/01/11 04:04:53;;;;;;;50.55;21.25;;;3.50;94.50;;;;;;5089273;28;20251;-75
2022/01/11 04:07:21;;;;;;;58.28;23.98;;;3.50;94.70;;;;;;5089058;28;20669;-74
2022/01/11 04:09:48;;;;;;;58.22;25.17;;;3.40;94.90;;;;;;5088707;28;20187;-75
2022/01/11 04:12:15;;;;;;;55.83;24.35;;;3.40;95.10;;;;;;5089332;28;20510;-72
2022/01/11 04:14:41;;;;;;;51.10;22.40;;;3.40;95.20;;;;;;5092084;28;20199;-73
2022/01/11 04:17:06;;;;;;;56.70;25.13;;;3.40;95.30;;;;;;5100944;28;20232;-73
2022/01/11 04:19:32;;;;;;;70.83;30.00;;;3.40;95.30;;;;;;5093977;28;20429;-76
2022/01/11 04:21:58;;;;;;;58.43;24.57;;;3.40;95.40;;;;;;5095384;28;20191;-74
2022/01/11 04:24:24;;;;;;;57.87;24.30;;;3.40;95.50;;;;;;5093103;28;20210;-73
2022/01/11 04:26:50;;;;;;;79.63;32.07;;;3.50;95.50;;;;;;5091140;28;20630;-72
2022/01/11 04:29:16;;;;;;;61.42;24.15;;;3.50;95.40;;;;;;5091972;28;20421;-74
2022/01/11 04:31:43;;;;;;;66.73;28.73;;;3.50;95.40;;;;;;5089323;28;20189;-74
2022/01/11 04:34:08;;;;;;;53.37;25.03;;;3.50;95.40;;;;;;5090059;28;20241;-75
2022/01/11 04:36:35;;;;;;;49.03;23.37;;;3.40;95.40;;;;;;5089863;28;20449;-73
2022/01/11 04:39:04;;;;;;;51.90;23.10;;;3.50;95.50;;;;;;5088515;28;20484;-75
2022/01/11 04:41:30;;;;;;;59.93;25.27;;;3.50;95.50;;;;;;5089632;28;20488;-73
2022/01/11 04:43:55;;;;;;;55.50;24.77;;;3.40;95.30;;;;;;5090092;28;20496;-73
2022/01/11 04:46:21;;;;;;;49.00;21.93;;;3.40;95.40;;;;;;5092351;28;20206;-72
2022/01/11 04:48:48;;;;;;;56.37;23.97;;;3.40;95.40;;;;;;5093911;28;20194;-74
2022/01/11 04:51:14;;;;;;;56.20;24.10;;;3.30;95.60;;;;;;5094381;28;20587;-73
2022/01/11 04:53:40;;;;;;;57.73;23.37;;;3.30;95.70;;;;;;5093440;28;20424;-74
2022/01/11 04:56:06;;;;;;;47.77;22.80;;;3.30;95.80;;;;;;5093578;28;20771;-74
2022/01/11 04:58:33;;;;;;;50.83;23.17;;;3.40;95.90;;;;;;5093590;28;20428;-73
2022/01/11 05:00:58;;;;;;;48.40;22.10;;;3.40;95.80;;;;;;5093504;28;20167;-75
2022/01/11 05:03:24;;;;;;;49.17;21.90;;;3.50;95.80;;;;;;5091499;28;20175;-73
2022/01/11 05:05:50;;;;;;;47.13;21.10;;;3.50;95.80;;;;;;5093096;28;20199;-74
2022/01/11 05:08:16;;;;;;;46.03;21.07;;;3.60;95.60;;;;;;5093312;28;20179;-74
2022/01/11 05:10:44;;;;;;;43.37;20.30;;;3.60;95.40;;;;;;5093504;28;20176;-73
2022/01/11 05:13:12;;;;;;;42.50;19.53;;;3.60;95.30;;;;;;5093066;28;20176;-73
2022/01/11 05:15:38;;;;;;;40.05;20.90;;;3.60;95.20;;;;;;5093247;28;20459;-74
2022/01/11 05:18:04;;;;;;;49.73;21.10;;;3.60;95.00;;;;;;5092816;28;20255;-73
2022/01/11 05:20:30;;;;;;;62.70;22.80;;;3.60;94.90;;;;;;5095117;28;20429;-73
2022/01/11 05:22:56;;;;;;;49.03;22.20;;;3.50;94.80;;;;;;5098551;28;20437;-73
2022/01/11 05:25:21;;;;;;;46.50;22.00;;;3.50;94.90;;;;;;5097462;28;20203;-74
2022/01/11 05:27:47;;;;;;;48.90;20.90;;;3.60;95.10;;;;;;5094250;28;20214;-75
2022/01/11 05:30:14;;;;;;;46.53;21.03;;;3.60;95.00;;;;;;5093694;28;20208;-73
2022/01/11 05:32:42;;;;;;;43.83;21.07;;;3.60;94.80;;;;;;5093826;28;20183;-74
2022/01/11 05:35:10;;;;;;;43.30;19.75;;;3.60;94.70;;;;;;5093023;28;20437;-73
2022/01/11 05:37:36;;;;;;;41.03;19.52;;;3.60;94.60;;;;;;5095384;28;20183;-73
2022/01/11 05:40:04;;;;;;;45.20;19.33;;;3.60;94.50;;;;;;5096422;28;20284;-73
2022/01/11 05:42:30;;;;;;;46.13;20.00;;;3.60;94.50;;;;;;5096970;28;20413;-74
2022/01/11 05:44:56;;;;;;;53.77;23.50;;;3.60;94.40;;;;;;5095079;28;20455;-74
2022/01/11 05:47:22;;;;;;;46.27;21.73;;;3.50;94.40;;;;;;5093404;28;20228;-75
2022/01/11 05:49:48;;;;;;;40.37;19.30;;;3.50;94.50;;;;;;5098405;28;20448;-75
2022/01/11 05:52:14;;;;;;;45.93;19.97;;;3.50;94.50;;;;;;5096646;28;20417;-74
2022/01/11 05:54:39;;;;;;;47.70;20.13;;;3.50;94.60;;;;;;5101069;28;20433;-74
2022/01/11 05:57:05;;;;;;;45.77;21.07;;;3.60;94.70;;;;;;5101360;28;20425;-75
2022/01/11 05:59:31;;;;;;;42.73;20.60;;;3.50;94.70;;;;;;5097885;28;20183;-75
2022/01/11 06:01:57;;;;;;;48.07;21.93;;;3.50;94.80;;;;;;5094851;28;20266;-76
2022/01/11 06:04:24;;;;;;;40.50;21.77;;;3.50;94.90;;;;;;5094183;28;20728;-75
2022/01/11 06:06:50;;;;;;;47.80;22.42;;;3.50;95.00;;;;;;5093517;28;20195;-74
2022/01/11 06:09:16;;;;;;;56.17;24.60;;;3.50;95.00;;;;;;5092008;28;20171;-74
2022/01/11 06:11:42;;;;;;;58.53;22.23;;;3.60;95.10;;;;;;5092662;28;20424;-74
2022/01/11 06:14:08;;;;;;;54.47;22.87;;;3.60;95.00;;;;;;5092311;28;20433;-74
2022/01/11 06:16:34;;;;;;;55.93;23.83;;;3.60;94.90;;;;;;5093271;28;20207;-73
2022/01/11 06:19:00;;;;;;;43.43;21.50;;;3.50;94.70;;;;;;5093474;28;20176;-74
2022/01/11 06:21:26;;;;;;;50.40;23.47;;;3.60;94.70;;;;;;5093981;28;20752;-74
2022/01/11 06:23:52;;;;;;;54.17;23.40;;;3.50;94.80;;;;;;5093503;28;20429;-75
2022/01/11 06:26:18;;;;;;;53.57;23.00;;;3.50;94.90;;;;;;5092657;28;20492;-73
2022/01/11 06:28:44;;;;;;;54.80;23.63;;;3.60;95.00;;;;;;5093961;28;20171;-74
2022/01/11 06:31:09;;;;;;;50.17;21.80;;;3.60;95.00;;;;;;5096088;28;20175;-72
2022/01/11 06:33:35;;;;;;;52.00;24.13;;;3.60;95.00;;;;;;5093815;28;20421;-75
2022/01/11 06:36:01;;;;;;;51.73;22.23;;;3.60;94.90;;;;;;5093534;28;20202;-73
2022/01/11 06:38:27;;;;;;;47.50;22.93;;;3.60;94.90;;;;;;5090177;28;20795;-74
2022/01/11 06:40:53;;;;;;;47.73;24.17;;;3.70;95.10;;;;;;5087159;28;20435;-74
2022/01/11 06:43:18;;;;;;;51.90;23.03;;;3.70;94.90;;;;;;5090906;28;20270;-75
2022/01/11 06:45:44;;;;;;;53.77;24.67;;;3.70;94.80;;;;;;5090733;28;20215;-74
2022/01/11 06:48:10;;;;;;;49.43;22.33;;;3.60;94.80;;;;;;5091173;28;20198;-72
2022/01/11 06:50:36;;;;;;;51.20;21.73;;;3.50;94.90;;;;;;5091039;28;20180;-74
2022/01/11 06:53:02;;;;;;;51.47;22.70;;;3.50;95.10;;;;;;5090648;28;20179;-73
2022/01/11 06:55:28;;;;;;;56.77;24.53;;;3.60;95.10;;;;;;5089143;28;20436;-76
2022/01/11 06:57:54;;;;;;;57.23;26.30;;;3.60;95.20;;;;;;5090644;28;20420;-74
2022/01/11 07:00:20;;;;;;;55.20;24.83;;;3.70;95.20;;;;;;5090716;28;20413;-73
2022/01/11 07:02:49;;;;;;;54.20;24.60;;;3.70;95.20;;;;;;5090452;28;20421;-74
2022/01/11 07:05:18;;;;;;;48.73;22.00;;;3.70;95.10;;;;;;5090471;28;20452;-75
2022/01/11 07:07:44;;;;;;;45.57;21.90;;;3.70;94.80;;;;;;5089587;28;21029;-75
2022/01/11 07:10:10;;;;;;;42.43;21.67;;;3.70;94.70;;;;;;5090811;28;20409;-73
2022/01/11 07:12:36;;;;;;;43.77;21.40;;;3.70;94.70;;;;;;5090883;28;20622;-75
2022/01/11 07:15:03;;;;;;;51.20;25.40;;;3.70;94.60;;;;;;5090712;28;20437;-75
2022/01/11 07:17:29;;;;;;;45.90;21.40;;;3.60;94.60;;;;;;5090836;28;20588;-74
2022/01/11 07:19:55;;;;;;;57.40;26.10;;;3.60;94.70;;;;;;5092917;28;20530;-73
2022/01/11 07:22:21;;;;;;;48.47;22.73;;;3.60;94.80;;;;;;5091457;28;20194;-75
2022/01/11 07:24:47;;;;;;;53.50;22.70;;;3.70;94.90;;;;;;5091030;28;20206;-75
2022/01/11 07:27:14;;;;;;;56.80;24.57;;;3.70;94.70;;;;;;5093277;28;20461;-74
2022/01/11 07:29:40;;;;;;;54.77;25.83;;;3.60;94.60;;;;;;5092322;28;20194;-74
2022/01/11 07:32:06;;;;;;;53.33;23.27;;;3.50;94.70;;;;;;5091733;28;20425;-74
2022/01/11 07:34:31;;;;;;;49.30;22.83;;;3.60;95.00;;;;;;5099607;28;20233;-73
2022/01/11 07:36:57;;;;;;;48.67;23.33;;;3.70;95.00;;;;;;5095331;28;20831;-73
2022/01/11 07:39:23;;;;;;;49.40;21.97;;;3.70;94.80;;;;;;5090537;28;20179;-74
2022/01/11 07:41:50;;;;;;;54.43;23.33;;;3.70;94.60;;;;;;5090869;28;20187;-74
2022/01/11 07:44:16;;;;;;;54.50;24.00;;;3.70;94.50;;;;;;5090586;28;20201;-76
2022/01/11 07:46:43;;;;;;;50.47;24.23;;;3.70;94.60;;;;;;5088600;28;20479;-74
2022/01/11 07:49:09;;;;;;;50.53;24.10;;;3.70;94.80;;;;;;5090136;28;20413;-74
2022/01/11 07:51:35;;;;;;;52.23;23.93;;;3.70;94.70;;;;;;5090204;28;20450;-73
2022/01/11 07:54:01;;;;;;;60.13;24.00;;;3.80;94.70;;;;;;5088793;28;20656;-75
2022/01/11 07:56:27;;;;;;;52.83;23.40;;;3.80;94.50;;;;;;5090910;28;20422;-74
2022/01/11 07:58:53;;;;;;;50.67;24.77;;;3.80;94.40;;;;;;5084332;28;20425;-76
2022/01/11 08:01:19;;;;;;;52.17;25.33;;;3.80;94.30;;;;;;5089868;28;20449;-73
2022/01/11 08:03:46;;;;;;;54.03;24.50;;;3.80;94.40;;;;;;5085701;28;20195;-75
2022/01/11 08:06:13;;;;;;;46.57;21.67;;;3.70;94.40;;;;;;5088899;28;20754;-75
2022/01/11 08:08:39;;;;;;;48.90;22.77;;;3.70;94.50;;;;;;5090146;28;20452;-73
2022/01/11 08:11:05;;;;;;;47.90;21.80;;;3.80;94.40;;;;;;5090202;28;20469;-73
2022/01/11 08:13:30;;;;;;;54.13;21.10;;;3.80;94.30;;;;;;5092549;28;20421;-73
2022/01/11 08:15:56;;;;;;;55.30;24.70;;;3.90;94.20;;;;;;5091867;28;20967;-74
2022/01/11 08:18:22;;;;;;;48.70;24.83;;;3.90;94.00;;;;;;5094227;28;20642;-73
2022/01/11 08:20:48;;;;;;;46.60;21.53;;;3.90;93.90;;;;;;5101788;28;20237;-75
2022/01/11 08:23:14;;;;;;;53.20;22.30;;;3.90;93.90;;;;;;5094404;28;20224;-74
2022/01/11 08:25:40;;;;;;;45.07;20.67;;;3.90;93.80;;;;;;5094104;28;20443;-74
2022/01/11 08:28:07;;;;;;;46.13;21.20;;;3.90;93.90;;;;;;5093595;28;20500;-76
2022/01/11 08:30:34;;;;;;;49.05;21.92;;;3.90;93.90;;;;;;5092920;28;20711;-73
2022/01/11 08:33:00;;;;;;;46.47;23.33;;;3.90;93.80;;;;;;5094200;28;20203;-74
2022/01/11 08:35:30;;;;;;;44.92;22.58;;;3.90;93.80;;;;;;5093977;28;20771;-75
2022/01/11 08:37:56;;;;;;;45.85;21.30;;;3.90;93.50;;;;;;5086315;28;20178;-74
2022/01/11 08:40:22;;;;;;;47.70;22.77;;;3.80;93.50;;;;;;5093653;28;20179;-76
2022/01/11 08:42:48;;;;;;;49.20;22.80;;;3.80;93.80;;;;;;5093074;28;20429;-74
2022/01/11 08:45:14;;;;;;;48.93;22.93;;;3.80;93.90;;;;;;5094607;28;20738;-75
2022/01/11 08:47:41;;;;;;;47.83;21.77;;;3.90;94.00;;;;;;5094359;28;20199;-75
2022/01/11 08:50:10;;;;;;;46.70;21.30;;;3.90;93.90;;;;;;5093243;28;20445;-75
2022/01/11 08:52:36;;;;;;;46.75;21.63;;;3.90;93.40;;;;;;5094332;28;20190;-74
2022/01/11 08:55:02;;;;;;;42.60;20.10;;;3.90;93.30;;;;;;5096671;28;20207;-74
2022/01/11 08:57:29;;;;;;;42.63;21.33;;;3.90;93.20;;;;;;5095042;28;20175;-74
2022/01/11 08:59:54;;;;;;;47.70;21.87;;;3.80;93.30;;;;;;5092852;28;20189;-73
2022/01/11 09:02:21;;;;;;;52.30;23.80;;;3.90;93.60;;;;;;5093708;28;20725;-75
2022/01/11 09:04:47;;;;;;;44.00;21.43;;;3.90;93.70;;;;;;5093830;28;20207;-77
2022/01/11 09:07:13;;;;;;;42.65;21.75;;;4.00;93.60;;;;;;5093600;28;20465;-74
2022/01/11 09:09:38;;;;;;;40.17;20.60;;;4.00;93.10;;;;;;5093278;28;20208;-73
2022/01/11 09:12:08;;;;;;;44.07;21.40;;;4.00;92.80;;;;;;5093250;28;20991;-76
2022/01/11 09:14:34;;;;;;;50.10;21.13;;;4.10;92.80;;;;;;5092430;28;21022;-75
2022/01/11 09:17:03;;;;;;;38.47;19.93;;;4.10;92.80;;;;;;5092895;28;20588;-74
2022/01/11 09:19:30;;;;;;;41.75;21.77;;;4.30;92.70;;;;;;5092813;28;20171;-74
2022/01/11 09:21:56;;;;;;;48.37;20.77;;;4.30;92.20;;;;;;5094775;28;20258;-74
2022/01/11 09:24:29;;;;;;;45.23;22.07;;;4.40;92.10;;;;;;5091943;28;20445;-74
2022/01/11 09:26:56;;;;;;;43.53;21.00;;;4.40;92.10;;;;;;5083486;28;20993;-73
2022/01/11 09:29:23;;;;;;;37.00;18.90;;;4.30;91.70;;;;;;5092622;28;20431;-74
2022/01/11 09:31:48;;;;;;;46.97;22.00;;;4.40;91.80;;;;;;5092189;28;20795;-73
2022/01/11 09:34:14;;;;;;;39.60;18.90;;;4.40;92.00;;;;;;5092387;28;20437;-76
2022/01/11 09:36:41;;;;;;;40.30;20.17;;;4.40;92.00;;;;;;5091764;28;20187;-75
2022/01/11 09:39:08;;;;;;;41.07;19.90;;;4.60;91.80;;;;;;5092117;28;20946;-74
2022/01/11 09:41:37;;;;;;;41.13;20.60;;;4.60;91.50;;;;;;5092850;28;20486;-73
2022/01/11 09:44:03;;;;;;;46.80;21.67;;;4.70;91.20;;;;;;5093195;28;20563;-74
2022/01/11 09:46:29;;;;;;;47.67;23.03;;;4.60;91.10;;;;;;5092595;28;20464;-76
2022/01/11 09:48:55;;;;;;;38.50;21.03;;;4.60;91.10;;;;;;5092619;28;20504;-74
2022/01/11 09:51:21;;;;;;;38.73;19.50;;;4.60;91.30;;;;;;5092460;28;20171;-75
2022/01/11 09:53:47;;;;;;;40.90;19.57;;;4.50;91.20;;;;;;5092200;28;20554;-75
2022/01/11 09:56:13;;;;;;;40.47;19.60;;;4.50;91.30;;;;;;5092068;28;20437;-74
2022/01/11 09:58:41;;;;;;;40.80;19.93;;;4.60;91.40;;;;;;5092138;28;20513;-74
2022/01/11 10:01:07;;;;;;;38.70;19.63;;;4.60;91.10;;;;;;5090659;28;20424;-74
2022/01/11 10:03:58;;;;;;;38.00;20.20;;;4.60;91.10;;;;;;5092881;28;20426;-73
2022/01/11 10:06:25;;;;;;;42.70;18.57;;;4.60;91.10;;;;;;5091642;28;20978;-74
2022/01/11 10:09:06;;;;;;;39.70;19.90;;;4.50;91.30;;;;;;5091645;28;20412;-74
2022/01/11 10:11:37;;;;;;;45.00;21.07;;;4.50;91.10;;;;;;5092183;28;20413;-74
2022/01/11 10:14:47;;;;;;;46.30;20.53;;;4.50;91.10;;;;;;5091722;28;20927;-74
2022/01/11 10:17:19;;;;;;;42.83;20.73;;;4.40;91.20;;;;;;5043384;28;20510;-76
2022/01/11 10:20:09;;;;;;;45.88;20.80;;;4.50;91.60;;;;;;5050192;28;20414;-76
2022/01/11 10:22:43;;;;;;;44.83;21.80;;;4.50;91.50;;;;;;5051813;28;20674;-74
2022/01/11 10:25:09;;;;;;;49.87;20.07;;;4.40;91.70;;;;;;5049981;28;20322;-76
2022/01/11 10:27:35;;;;;;;40.27;22.23;;;4.40;91.70;;;;;;5050132;28;20948;-74
2022/01/11 10:30:10;;;;;;;43.97;19.33;;;4.50;91.80;;;;;;5053365;28;20180;-74
2022/01/11 10:32:40;;;;;;;39.97;18.10;;;4.60;91.40;;;;;;5050901;28;20426;-75
2022/01/11 10:35:06;;;;;;;46.60;20.00;;;4.70;91.00;;;;;;5033323;28;20447;-74
2022/01/11 10:37:37;;;;;;;43.03;18.10;;;4.80;90.60;;;;;;5050170;28;20888;-73
2022/01/11 10:40:17;;;;;;;41.93;20.00;;;4.90;90.50;;;;;;5035040;28;20740;-73
2022/01/11 10:42:49;;;;;;;42.70;20.10;;;5.00;90.20;;;;;;5032046;28;20936;-75
2022/01/11 10:45:29;;;;;;;46.23;20.40;;;4.90;89.90;;;;;;5051872;28;20470;-76
2022/01/11 10:47:58;;;;;;;43.73;19.97;;;4.80;90.10;;;;;;5068201;28;20963;-75
2022/01/11 10:50:34;;;;;;;35.30;18.30;;;4.80;90.40;;;;;;5095426;28;20420;-73
2022/01/11 10:53:20;;;;;;;44.27;19.97;;;4.80;90.50;;;;;;5088474;28;20420;-74
2022/01/11 10:55:59;;;;;;;39.60;19.23;;;4.80;90.20;;;;;;5094305;28;20523;-76
2022/01/11 10:58:28;;;;;;;36.10;18.50;;;4.80;90.30;;;;;;5092208;28;20424;-74
2022/01/11 11:00:56;;;;;;;45.90;20.07;;;4.90;90.40;;;;;;5088372;28;20409;-74
2022/01/11 11:03:24;;;;;;;36.17;18.67;;;5.10;90.00;;;;;;5091840;28;20589;-75
2022/01/11 11:05:51;;;;;;;36.97;18.07;;;5.20;89.60;;;;;;5094091;28;20429;-74
2022/01/11 11:08:33;;;;;;;36.73;17.90;;;5.30;88.60;;;;;;5096162;28;20529;-73
2022/01/11 11:11:00;;;;;;;40.10;16.63;;;5.40;87.80;;;;;;5100247;28;20425;-73
2022/01/11 11:13:30;;;;;;;36.83;17.93;;;5.30;86.90;;;;;;5091684;28;20475;-73
2022/01/11 11:15:59;;;;;;;39.03;17.50;;;5.30;87.00;;;;;;5089173;28;20868;-75
2022/01/11 11:18:37;;;;;;;33.87;15.30;;;5.40;86.80;;;;;;5092328;28;20512;-72
2022/01/11 11:21:31;;;;;;;34.00;16.77;;;5.40;85.70;;;;;;5093701;28;20416;-75
2022/01/11 11:24:00;;;;;;;36.10;16.60;;;5.60;85.00;;;;;;5090743;28;20778;-73
2022/01/11 11:26:30;;;;;;;28.63;14.20;;;5.70;84.40;;;;;;5090319;28;20950;-75
2022/01/11 11:28:56;;;;;;;28.60;13.53;;;5.70;83.40;;;;;;5085685;28;20417;-74
2022/01/11 11:31:22;;;;;;;28.20;13.43;;;5.70;82.10;;;;;;5090778;28;20436;-75
2022/01/11 11:33:50;;;;;;;26.13;14.77;;;5.60;81.70;;;;;;5090849;28;20428;-75
2022/01/11 11:36:17;;;;;;;29.23;13.03;;;5.70;81.50;;;;;;5091145;28;20417;-73
2022/01/11 11:38:48;;;;;;;28.43;13.67;;;5.70;81.50;;;;;;5095320;28;20439;-75
2022/01/11 11:41:15;;;;;;;32.57;15.20;;;5.70;80.80;;;;;;5093119;28;20405;-75
2022/01/11 11:43:41;;;;;;;35.93;16.53;;;5.80;81.10;;;;;;5090347;28;20417;-75
2022/01/11 11:46:07;;;;;;;31.77;15.60;;;5.80;81.40;;;;;;5093088;28;20515;-75
2022/01/11 11:48:32;;;;;;;34.23;15.60;;;5.80;81.50;;;;;;5093432;28;20453;-75
2022/01/11 11:51:07;;;;;;;34.47;15.63;;;5.90;81.50;;;;;;5093841;28;20420;-74
2022/01/11 11:53:35;;;;;;;39.20;15.97;;;5.80;82.10;;;;;;5091213;28;20183;-73
2022/01/11 11:56:22;;;;;;;29.63;15.93;;;5.70;83.30;;;;;;5092311;28;20508;-75
2022/01/11 11:58:57;;;;;;;23.20;11.30;;;5.70;83.80;;;;;;5091841;28;20421;-73
2022/01/11 12:01:42;;;;;;;23.93;11.87;;;5.50;79.50;;;;;;5098185;28;20466;-74
2022/01/11 12:04:27;;;;;;;20.60;11.70;;;5.40;79.60;;;;;;5097299;28;20563;-73
2022/01/11 12:06:55;;;;;;;25.67;11.43;;;5.50;78.90;;;;;;5094331;28;20540;-74
2022/01/11 12:09:21;;;;;;;22.73;10.23;;;5.60;78.90;;;;;;5094045;28;20861;-74
2022/01/11 12:11:50;;;;;;;21.20;10.53;;;5.70;78.00;;;;;;5096018;28;20417;-74
2022/01/11 12:14:31;;;;;;;18.40;9.30;;;5.80;75.90;;;;;;5095755;28;20547;-73
2022/01/11 12:17:22;;;;;;;20.23;8.80;;;5.80;73.70;;;;;;5096840;28;20417;-75
2022/01/11 12:19:51;;;;;;;20.67;8.87;;;5.90;73.00;;;;;;5084552;28;20513;-76
2022/01/11 12:22:21;;;;;;;19.03;9.47;;;6.00;72.70;;;;;;5092283;28;20429;-73
2022/01/11 12:24:50;;;;;;;15.93;8.20;;;5.90;72.30;;;;;;5093739;28;20475;-74
2022/01/11 12:27:21;;;;;;;19.27;9.30;;;6.00;72.30;;;;;;5094135;28;20472;-76
2022/01/11 12:30:06;;;;;;;13.80;7.10;;;6.00;72.00;;;;;;5096489;28;20425;-74
2022/01/11 12:32:38;;;;;;;12.20;6.20;;;6.10;72.00;;;;;;5092297;28;20598;-74
2022/01/11 12:35:21;;;;;;;16.33;5.90;;;6.10;71.00;;;;;;5091926;28;20496;-74
2022/01/11 12:37:47;;;;;;;9.60;5.80;;;6.10;70.20;;;;;;5094694;28;20424;-75
2022/01/11 12:40:29;;;;;;;9.90;5.03;;;6.10;69.40;;;;;;5094606;28;20575;-75
2022/01/11 12:43:19;;;;;;;8.47;5.40;;;6.10;68.80;;;;;;5095405;28;20412;-74
2022/01/11 12:46:00;;;;;;;12.10;5.30;;;6.10;69.50;;;;;;5090407;28;20974;-72